Time;durP1;ratioP1;P1;durP2;ratioP2;P2;SDS_P1;SDS_P2;PMS_P1;PMS_P2;Temp;Humidity;BMP_temperature;BMP_pressure;BME280_temperature;BME280_humidity;BME280_pressure;Samples;Min_cycle;Max_cycle;Signal;HPM_P1;HPM_P2
2023/07/08 00:03:48;;;;;;;11.10;5.38;;;;;;;24.04;66.41;99325.28;10330418;28;20299;-67
2023/07/08 00:08:49;;;;;;;14.82;5.95;;;;;;;23.97;66.57;99311.22;10330260;28;20043;-67
2023/07/08 00:13:50;;;;;;;14.32;5.63;;;;;;;23.77;66.84;99305.91;10331819;28;20046;-68
2023/07/08 00:18:50;;;;;;;13.50;5.93;;;;;;;23.80;67.05;99305.34;10330233;28;20121;-67
2023/07/08 00:23:51;;;;;;;15.90;6.35;;;;;;;23.75;66.92;99306.19;10330370;28;20088;-67
2023/07/08 00:28:52;;;;;;;14.32;6.32;;;;;;;23.73;66.84;99304.88;10330212;28;20042;-67
2023/07/08 00:33:55;;;;;;;29.67;6.43;;;;;;;23.76;67.46;99298.88;10329549;28;20087;-67
2023/07/08 00:38:57;;;;;;;12.20;5.80;;;;;;;23.12;67.66;99209.19;10329425;28;20147;-67
2023/07/08 00:43:59;;;;;;;32.75;6.93;;;;;;;23.52;68.38;99299.53;10345794;28;20038;-67
2023/07/08 00:49:07;;;;;;;34.67;7.65;;;;;;;23.49;68.46;99296.56;10345801;28;20068;-67
2023/07/08 00:54:13;;;;;;;46.17;7.95;;;;;;;23.30;69.90;99280.91;10329312;28;20048;-68
2023/07/08 00:59:34;;;;;;;12.95;5.78;;;;;;;22.30;70.14;99117.44;10329904;28;20065;-67
2023/07/08 01:04:46;;;;;;;23.25;6.35;;;;;;;22.76;70.38;99182.25;10329595;28;20046;-67
2023/07/08 01:09:49;;;;;;;21.00;5.80;;;;;;;23.32;69.49;99273.31;10327964;28;20042;-67
2023/07/08 01:14:53;;;;;;;17.88;6.53;;;;;;;23.32;69.97;99276.03;10329141;28;20166;-67
2023/07/08 01:19:55;;;;;;;12.77;5.93;;;;;;;23.36;69.99;99279.81;10328424;28;20042;-67
2023/07/08 01:24:56;;;;;;;15.32;5.80;;;;;;;22.91;70.37;99208.44;10328352;28;20046;-67
2023/07/08 01:29:57;;;;;;;108.82;12.23;;;;;;;23.25;70.80;99286.38;10327432;28;20042;-67
2023/07/08 01:35:01;;;;;;;30.48;7.63;;;;;;;23.12;72.79;99285.03;10327284;28;20081;-67
2023/07/08 01:40:21;;;;;;;14.65;6.78;;;;;;;22.67;73.35;99199.31;10328407;28;20038;-67
2023/07/08 01:45:25;;;;;;;28.63;7.50;;;;;;;23.20;72.83;99286.38;10326824;28;20547;-69
2023/07/08 01:50:27;;;;;;;13.70;6.80;;;;;;;22.14;71.73;99117.72;10335178;28;20062;-67
2023/07/08 01:55:28;;;;;;;15.40;6.53;;;;;;;23.13;71.79;99259.59;10351562;28;20042;-67
2023/07/08 02:00:29;;;;;;;11.63;6.35;;;;;;;22.77;71.85;99191.19;10328023;28;20042;-67
2023/07/08 02:05:30;;;;;;;15.43;6.18;;;;;;;23.26;71.97;99252.75;10327357;28;20046;-68
2023/07/08 02:10:31;;;;;;;13.20;6.00;;;;;;;23.40;72.30;99270.03;10327274;28;20046;-67
2023/07/08 02:15:32;;;;;;;22.05;7.10;;;;;;;23.36;72.94;99260.00;10326851;28;20099;-67
2023/07/08 02:20:33;;;;;;;13.20;6.30;;;;;;;23.59;72.57;99262.06;10327421;28;20170;-68
2023/07/08 02:25:33;;;;;;;9.98;6.18;;;;;;;23.66;72.01;99251.72;10326631;28;20046;-67
2023/07/08 02:30:34;;;;;;;14.45;6.68;;;;;;;23.33;71.59;99149.47;10326940;28;20484;-67
2023/07/08 02:35:35;;;;;;;10.40;6.40;;;;;;;24.31;71.04;99261.56;10326249;28;20401;-67
2023/07/08 02:40:36;;;;;;;17.60;6.10;;;;;;;24.69;70.06;99251.72;10325984;28;20050;-67
2023/07/08 02:45:36;;;;;;;18.27;6.22;;;;;;;24.83;69.39;99209.22;10325028;28;20038;-68
2023/07/08 02:50:37;;;;;;;43.30;7.90;;;;;;;26.26;67.30;99240.91;10338374;28;20042;-69
2023/07/08 02:55:42;;;;;;;15.93;6.10;;;;;;;27.41;64.14;99229.19;10325267;28;20063;-67
2023/07/08 03:00:43;;;;;;;12.70;6.35;;;;;;;27.87;63.06;99237.16;10325589;28;20136;-68
2023/07/08 03:05:43;;;;;;;20.13;6.45;;;;;;;27.64;63.51;99232.75;10325296;28;20052;-68
2023/07/08 03:10:55;;;;;;;13.68;6.40;;;;;;;27.46;64.11;99237.25;10335766;28;20046;-68
2023/07/08 03:15:58;;;;;;;14.45;6.40;;;;;;;26.97;64.93;99230.63;10336177;28;20075;-70
2023/07/08 03:20:59;;;;;;;58.15;9.93;;;;;;;26.70;66.73;99248.59;10325244;28;20140;-67
2023/07/08 03:26:00;;;;;;;16.63;6.97;;;;;;;26.39;67.42;99242.88;10326286;28;20038;-67
2023/07/08 03:31:01;;;;;;;14.60;6.88;;;;;;;26.29;67.58;99248.50;10345654;28;20043;-67
2023/07/08 03:36:02;;;;;;;9.95;6.57;;;;;;;26.52;67.61;99258.47;10369655;28;20059;-67
2023/07/08 03:41:03;;;;;;;24.35;6.88;;;;;;;26.57;67.22;99246.69;10404426;28;20045;-67
2023/07/08 03:46:04;;;;;;;41.00;8.57;;;;;;;26.30;68.39;99226.44;10377451;28;20417;-67
2023/07/08 03:51:14;;;;;;;14.73;7.00;;;;;;;25.87;70.54;99185.78;10338458;28;20047;-67
2023/07/08 03:56:14;;;;;;;17.55;7.57;;;;;;;25.78;69.89;99217.44;10329264;28;20066;-67
2023/07/08 04:01:17;;;;;;;31.50;8.35;;;;;;;25.65;70.94;99254.38;10329327;28;20526;-68
2023/07/08 04:06:19;;;;;;;30.07;8.90;;;;;;;25.12;71.96;99178.41;10331318;28;20489;-67
2023/07/08 04:11:22;;;;;;;15.70;7.32;;;;;;;25.26;72.84;99219.31;10330251;28;20057;-68
2023/07/08 04:16:28;;;;;;;15.55;6.60;;;;;;;25.07;72.89;99200.22;10330592;28;20038;-67
2023/07/08 04:21:30;;;;;;;32.65;7.75;;;;;;;25.33;72.34;99222.44;10329872;28;20038;-67
2023/07/08 04:26:35;;;;;;;17.17;6.80;;;;;;;25.58;72.41;99248.50;10330567;28;20065;-67
2023/07/08 04:31:36;;;;;;;11.15;6.22;;;;;;;24.86;71.73;99099.19;10329690;28;20034;-67
2023/07/08 04:36:37;;;;;;;17.20;6.40;;;;;;;26.14;70.82;99263.97;10329807;28;20046;-67
2023/07/08 04:41:40;;;;;;;8.50;5.88;;;;;;;26.82;69.59;99254.34;10329692;28;20137;-68
2023/07/08 04:46:56;;;;;;;12.25;7.22;;;;;;;27.34;67.62;99234.25;10329488;28;20050;-67
2023/07/08 04:51:58;;;;;;;15.35;6.45;;;;;;;27.57;66.81;99244.09;10338880;28;20125;-67
2023/07/08 04:56:59;;;;;;;11.95;6.85;;;;;;;27.56;66.15;99226.13;10329872;28;20608;-67
2023/07/08 05:02:00;;;;;;;33.00;6.72;;;;;;;28.28;63.47;99225.22;10329034;28;20137;-67
2023/07/08 05:07:00;;;;;;;36.00;6.60;;;;;;;28.49;61.77;99121.72;10328476;28;20600;-67
2023/07/08 05:12:01;;;;;;;17.52;5.20;;;;;;;29.29;59.89;99201.66;10328955;28;20129;-67
2023/07/08 05:17:02;;;;;;;12.38;4.55;;;;;;;29.11;59.20;99131.69;10329396;28;20069;-67
2023/07/08 05:22:03;;;;;;;15.35;4.50;;;;;;;29.76;58.09;99182.69;10328580;28;20478;-67
2023/07/08 05:27:04;;;;;;;10.25;4.78;;;;;;;29.76;57.96;99179.94;10328328;28;20042;-67
2023/07/08 05:32:05;;;;;;;12.05;4.80;;;;;;;29.10;57.97;99089.84;10327950;28;20042;-67
2023/07/08 05:37:07;;;;;;;9.57;5.10;;;;;;;29.27;58.49;99157.41;10328050;28;20035;-66
2023/07/08 05:42:08;;;;;;;9.35;5.03;;;;;;;28.77;58.53;99141.38;10328596;28;20089;-66
2023/07/08 05:47:08;;;;;;;11.40;4.72;;;;;;;28.79;58.29;99185.59;10329605;28;20133;-66
2023/07/08 05:52:11;;;;;;;11.60;4.50;;;;;;;28.20;57.90;99128.47;10340283;28;20050;-68
2023/07/08 05:57:12;;;;;;;7.50;4.63;;;;;;;28.36;58.01;99167.13;10330015;28;20141;-67
2023/07/08 06:02:13;;;;;;;8.77;4.75;;;;;;;27.91;57.78;99106.31;10335462;28;20046;-69
2023/07/08 06:07:13;;;;;;;8.85;4.55;;;;;;;28.34;57.93;99174.81;10325577;28;20482;-66
2023/07/08 06:12:14;;;;;;;10.77;4.70;;;;;;;28.21;57.67;99203.81;10326961;28;20071;-68
2023/07/08 06:17:16;;;;;;;10.73;4.20;;;;;;;28.22;57.20;99185.50;10336712;28;20588;-67
2023/07/08 06:22:17;;;;;;;11.77;4.53;;;;;;;28.45;56.75;99186.31;10326748;28;20049;-68
2023/07/08 06:27:18;;;;;;;13.32;5.25;;;;;;;28.50;55.84;99174.41;10326755;28;20061;-67
2023/07/08 06:32:18;;;;;;;20.15;5.85;;;;;;;28.60;55.49;99220.59;10326055;28;20570;-67
2023/07/08 06:37:19;;;;;;;14.27;5.30;;;;;;;28.62;54.85;99212.88;10325819;28;20556;-69
2023/07/08 06:42:20;;;;;;;20.80;7.28;;;;;;;28.66;54.91;99213.88;10325818;28;20096;-67
2023/07/08 06:47:22;;;;;;;12.38;4.78;;;;;;;28.47;54.96;99200.44;10325578;28;20148;-67
2023/07/08 06:52:22;;;;;;;13.15;4.30;;;;;;;28.32;54.47;99154.38;10325355;28;20046;-67
2023/07/08 06:57:23;;;;;;;11.10;4.38;;;;;;;29.34;53.79;99242.53;10325706;28;20055;-67
2023/07/08 07:02:24;;;;;;;102.07;12.60;;;;;;;29.97;52.45;99232.09;10325911;28;20468;-67
2023/07/08 07:07:25;;;;;;;15.93;5.63;;;;;;;30.20;51.14;99177.13;10325029;28;20051;-66
2023/07/08 07:12:26;;;;;;;12.95;4.20;;;;;;;30.43;49.78;99145.66;10324770;28;20083;-67
2023/07/08 07:17:27;;;;;;;45.00;6.43;;;;;;;30.87;49.80;99161.88;10323553;28;20050;-66
2023/07/08 07:22:28;;;;;;;12.35;4.40;;;;;;;30.43;47.55;99076.34;10323968;28;20121;-68
2023/07/08 07:27:29;;;;;;;10.90;4.28;;;;;;;31.36;47.46;99203.38;10343369;28;20042;-68
2023/07/08 07:32:32;;;;;;;102.40;14.30;;;;;;;31.50;46.54;99184.72;10363819;28;20038;-66
2023/07/08 07:37:33;;;;;;;28.73;8.73;;;;;;;31.53;45.91;99153.03;10348611;28;20038;-66
2023/07/08 07:42:34;;;;;;;153.52;21.02;;;;;;;31.88;45.80;99169.97;10369969;28;20409;-67
2023/07/08 07:47:35;;;;;;;395.58;49.80;;;;;;;31.51;45.90;99097.69;10344168;28;20042;-68
2023/07/08 07:52:36;;;;;;;78.85;12.85;;;;;;;31.34;45.89;99091.22;10329277;28;20042;-67
2023/07/08 07:57:37;;;;;;;17.20;5.68;;;;;;;31.58;46.08;99152.81;10341793;28;20069;-68
2023/07/08 08:02:38;;;;;;;14.68;4.78;;;;;;;31.60;46.31;99137.63;10330104;28;20046;-68
2023/07/08 08:07:40;;;;;;;9.43;4.75;;;;;;;31.68;46.08;99135.13;10346008;28;20054;-67
2023/07/08 08:12:41;;;;;;;17.80;4.88;;;;;;;31.64;45.65;99154.22;10365382;28;20045;-69
2023/07/08 08:17:47;;;;;;;17.02;4.68;;;;;;;31.91;45.21;99163.03;10371142;28;20084;-68
2023/07/08 08:22:47;;;;;;;15.48;4.50;;;;;;;31.98;44.62;99155.88;10364192;28;20045;-68
2023/07/08 08:27:48;;;;;;;23.98;4.70;;;;;;;31.99;44.55;99167.66;10331035;28;20917;-67
2023/07/08 08:32:49;;;;;;;9.43;3.95;;;;;;;32.04;44.80;99179.22;10332190;28;20042;-67
2023/07/08 08:37:50;;;;;;;15.82;4.55;;;;;;;32.32;44.08;99161.28;10370275;28;20390;-68
2023/07/08 08:43:06;;;;;;;12.88;4.40;;;;;;;32.77;44.12;99185.97;10340455;28;20060;-68
2023/07/08 08:48:13;;;;;;;17.95;4.30;;;;;;;32.67;43.57;99176.22;10369512;28;20038;-68
2023/07/08 08:53:17;;;;;;;16.10;4.38;;;;;;;32.72;42.89;99186.97;10369204;28;20042;-68
2023/07/08 08:58:25;;;;;;;17.65;4.85;;;;;;;33.02;42.30;99181.25;10369394;28;20061;-68
2023/07/08 09:03:47;;;;;;;27.98;4.82;;;;;;;32.63;42.72;99111.25;10369073;28;20042;-67
2023/07/08 09:08:50;;;;;;;17.10;5.05;;;;;;;32.76;42.37;99131.28;10369571;28;20493;-67
2023/07/08 09:13:52;;;;;;;19.13;4.97;;;;;;;32.97;42.53;99171.28;10370025;28;20073;-67
2023/07/08 09:19:00;;;;;;;34.38;4.78;;;;;;;32.97;42.44;99149.28;10338763;28;20042;-66
2023/07/08 09:24:09;;;;;;;22.92;5.32;;;;;;;33.21;42.16;99160.56;10332294;28;20152;-67
2023/07/08 09:29:10;;;;;;;18.77;4.72;;;;;;;33.70;41.65;99157.69;10328469;28;20129;-67
2023/07/08 09:34:16;;;;;;;21.08;4.93;;;;;;;33.00;41.56;99103.78;10327295;28;20078;-67
2023/07/08 09:39:20;;;;;;;11.95;4.30;;;;;;;32.90;41.65;99069.28;10326886;28;20042;-67
2023/07/08 09:44:28;;;;;;;17.23;4.40;;;;;;;33.41;41.30;99143.09;10327799;28;20042;-67
2023/07/08 09:49:35;;;;;;;22.52;5.07;;;;;;;33.27;43.00;99134.44;10327908;28;20471;-66
2023/07/08 09:54:35;;;;;;;16.60;4.80;;;;;;;33.14;42.61;99128.94;10323734;28;20042;-67
2023/07/08 09:59:58;;;;;;;16.08;5.10;;;;;;;33.17;42.49;99128.25;10328290;28;20583;-68
2023/07/08 10:05:16;;;;;;;16.88;5.07;;;;;;;32.94;42.22;99074.91;10328956;28;20054;-69
2023/07/08 10:10:28;;;;;;;36.47;6.25;;;;;;;33.48;43.18;99131.50;10366420;28;20037;-67
2023/07/08 10:16:06;;;;;;;19.93;5.37;;;;;;;33.96;42.16;99146.19;10366905;28;20042;-68
2023/07/08 10:21:33;;;;;;;14.82;5.53;;;;;;;33.34;41.25;99005.28;10357572;28;20100;-68
2023/07/08 10:26:35;;;;;;;17.13;4.78;;;;;;;34.25;41.47;99121.00;10358385;28;20054;-68
2023/07/08 10:31:44;;;;;;;;;;;;;;;34.64;41.06;99109.31;10367463;28;20038;-67
2023/07/08 10:37:04;;;;;;;29.70;6.05;;;;;;;34.19;41.72;99060.97;10367144;28;19924;-67
2023/07/08 10:42:44;;;;;;;10.77;4.47;;;;;;;34.50;41.72;99126.31;10351241;28;20085;-67
2023/07/08 10:48:24;;;;;;;13.35;4.70;;;;;;;34.50;41.23;99129.88;10292365;28;20054;-68
2023/07/08 10:54:07;;;;;;;13.53;4.87;;;;;;;34.29;41.60;99124.63;10330878;28;20053;-69
2023/07/08 10:59:36;;;;;;;15.10;4.93;;;;;;;34.20;41.94;99131.50;10319533;28;20050;-68
2023/07/08 11:05:04;;;;;;;14.75;4.80;;;;;;;34.57;42.40;99131.22;10340572;28;20045;-67
2023/07/08 11:10:20;;;;;;;11.68;4.60;;;;;;;34.36;41.59;99099.19;10372619;28;20167;-69
2023/07/08 11:15:39;;;;;;;12.77;4.68;;;;;;;34.52;40.86;99135.81;10373104;28;20056;-70
2023/07/08 11:21:12;;;;;;;15.88;5.10;;;;;;;34.33;41.02;99134.94;10372224;28;20074;-68
2023/07/08 11:26:23;;;;;;;14.68;4.80;;;;;;;34.17;42.45;99140.47;10360883;28;20157;-67
2023/07/08 11:31:28;;;;;;;12.13;4.40;;;;;;;34.33;40.96;99110.13;10343890;28;20042;-73
2023/07/08 11:36:48;;;;;;;7.78;4.13;;;;;;;34.58;40.84;99127.28;10335717;28;20509;-67
2023/07/08 11:42:10;;;;;;;9.07;4.43;;;;;;;34.48;41.45;99121.13;10351153;28;20084;-68
2023/07/08 11:47:19;;;;;;;10.68;4.55;;;;;;;34.26;40.87;99119.03;10351826;28;20435;-69
2023/07/08 11:52:22;;;;;;;9.70;4.43;;;;;;;34.09;41.51;99123.72;10339907;28;20042;-68
2023/07/08 11:57:42;;;;;;;9.30;4.05;;;;;;;34.37;42.07;99138.56;10353116;28;20064;-67
2023/07/08 12:02:58;;;;;;;10.20;4.85;;;;;;;34.28;42.22;99134.06;10352766;28;20034;-67
2023/07/08 12:08:03;;;;;;;9.88;4.30;;;;;;;34.58;41.08;99125.31;10349823;28;20042;-68
2023/07/08 12:13:17;;;;;;;12.38;4.50;;;;;;;34.80;40.98;99137.66;10352633;28;20042;-70
2023/07/08 12:18:34;;;;;;;15.65;4.72;;;;;;;34.60;41.18;99080.84;10354420;28;20127;-70
2023/07/08 12:23:35;;;;;;;12.57;5.15;;;;;;;34.62;41.04;99075.78;10355856;28;20057;-68
2023/07/08 12:28:40;;;;;;;14.43;4.50;;;;;;;35.04;40.18;99149.63;10349768;28;20046;-68
2023/07/08 12:33:59;;;;;;;22.80;4.38;;;;;;;34.71;40.89;99079.16;10353315;28;20054;-68
2023/07/08 12:39:01;;;;;;;12.82;3.85;;;;;;;34.94;40.09;99143.50;10349567;28;20049;-71
2023/07/08 12:44:02;;;;;;;11.93;3.95;;;;;;;35.07;40.07;99159.97;10348271;28;20037;-68
2023/07/08 12:49:03;;;;;;;14.30;4.35;;;;;;;35.10;39.24;99179.38;10351809;28;20189;-68
2023/07/08 12:54:04;;;;;;;14.63;4.38;;;;;;;35.17;39.15;99193.31;10354707;28;20577;-72
2023/07/08 12:59:06;;;;;;;41.03;7.70;;;;;;;34.73;39.35;99223.00;10353045;28;20120;-68
2023/07/08 13:04:11;;;;;;;19.70;4.57;;;;;;;33.74;40.23;99144.81;10387589;28;20191;-70
2023/07/08 13:09:27;;;;;;;10.23;4.07;;;;;;;34.39;40.58;99219.78;10373881;28;20049;-67
2023/07/08 13:14:28;;;;;;;9.65;4.45;;;;;;;34.47;39.86;99205.03;10351850;28;20098;-68
2023/07/08 13:19:29;;;;;;;10.82;3.83;;;;;;;34.09;39.46;99134.75;10368110;28;20122;-68
2023/07/08 13:24:33;;;;;;;8.68;3.95;;;;;;;34.14;39.12;99135.66;10369025;28;20072;-68
2023/07/08 13:29:35;;;;;;;14.13;5.05;;;;;;;34.75;38.99;99201.38;10340445;28;20049;-68
2023/07/08 13:34:35;;;;;;;;;;;;;;;34.80;39.43;99206.63;10356496;28;20049;-68
2023/07/08 13:39:37;;;;;;;9.50;4.40;;;;;;;34.07;40.39;99175.66;10368568;28;19913;-68
2023/07/08 13:44:46;;;;;;;10.20;4.10;;;;;;;33.83;40.38;99200.53;10347803;28;20070;-68
2023/07/08 13:49:53;;;;;;;11.98;4.20;;;;;;;33.44;41.34;99196.66;10327819;28;20551;-68
2023/07/08 13:55:10;;;;;;;28.17;6.10;;;;;;;33.11;44.75;99192.94;10337733;28;20092;-68
2023/07/08 14:00:11;;;;;;;18.23;4.90;;;;;;;33.02;44.68;99200.50;10356188;28;20072;-68
2023/07/08 14:05:15;;;;;;;12.45;4.47;;;;;;;32.75;43.43;99141.50;10327101;28;20068;-68
2023/07/08 14:10:16;;;;;;;14.57;5.07;;;;;;;32.73;42.74;99091.56;10331775;28;20046;-68
2023/07/08 14:15:17;;;;;;;12.13;4.03;;;;;;;33.25;41.70;99162.31;10329110;28;20044;-68
2023/07/08 14:20:18;;;;;;;29.15;4.35;;;;;;;33.09;42.99;99153.97;10337441;28;20038;-68
2023/07/08 14:25:23;;;;;;;13.33;3.90;;;;;;;32.94;43.15;99160.97;10334014;28;20096;-69
2023/07/08 14:30:24;;;;;;;13.13;4.30;;;;;;;32.74;43.06;99168.19;10325985;28;20797;-69
2023/07/08 14:35:30;;;;;;;25.65;4.45;;;;;;;32.59;43.84;99179.09;10325042;28;20042;-68
2023/07/08 14:40:38;;;;;;;25.77;4.88;;;;;;;32.44;44.38;99164.88;10335581;28;20077;-68
2023/07/08 14:45:48;;;;;;;53.15;6.80;;;;;;;32.28;45.79;99180.41;10340859;28;20380;-68
2023/07/08 14:50:48;;;;;;;12.75;4.57;;;;;;;32.15;44.49;99154.84;10355512;28;20038;-67
2023/07/08 14:55:53;;;;;;;10.13;3.70;;;;;;;32.02;43.83;99139.50;10325869;28;20574;-69
2023/07/08 15:00:57;;;;;;;22.50;4.35;;;;;;;32.34;43.77;99148.81;10325440;28;20051;-68
2023/07/08 15:05:58;;;;;;;17.50;5.00;;;;;;;31.98;43.39;99078.97;10325674;28;20046;-68
2023/07/08 15:11:00;;;;;;;11.45;4.72;;;;;;;32.15;43.56;99110.88;10335887;28;20042;-68
2023/07/08 15:16:01;;;;;;;17.23;5.55;;;;;;;32.13;44.15;99129.69;10347537;28;20107;-68
2023/07/08 15:21:39;;;;;;;50.80;7.75;;;;;;;32.38;46.46;99171.72;10334599;28;20107;-68
2023/07/08 15:26:59;;;;;;;15.82;5.13;;;;;;;32.21;45.05;99182.91;10365159;28;20153;-68
2023/07/08 15:32:20;;;;;;;21.15;5.25;;;;;;;32.04;46.03;99172.94;10364949;28;20041;-68
2023/07/08 15:37:21;;;;;;;21.10;4.90;;;;;;;31.97;46.36;99172.66;10365376;28;20421;-68
2023/07/08 15:42:22;;;;;;;14.88;5.03;;;;;;;32.04;45.79;99167.44;10364788;28;20041;-67
2023/07/08 15:47:41;;;;;;;36.50;7.13;;;;;;;32.05;47.98;99191.81;10364767;28;20532;-67
2023/07/08 15:52:42;;;;;;;23.95;5.60;;;;;;;31.82;47.19;99174.88;10371522;28;20076;-68
2023/07/08 15:57:48;;;;;;;31.00;6.35;;;;;;;31.86;47.43;99191.50;10371114;28;20054;-67
2023/07/08 16:02:57;;;;;;;23.67;5.53;;;;;;;31.81;47.81;99186.22;10370587;28;20052;-67
2023/07/08 16:07:58;;;;;;;27.20;5.78;;;;;;;31.12;48.23;99097.84;10370900;28;20046;-67
2023/07/08 16:12:59;;;;;;;15.48;5.05;;;;;;;31.41;49.13;99167.53;10366716;28;20053;-67
2023/07/08 16:18:01;;;;;;;29.88;6.15;;;;;;;31.36;49.81;99192.41;10364420;28;20038;-68
2023/07/08 16:23:01;;;;;;;43.60;6.80;;;;;;;30.74;49.96;99113.56;10364651;28;20129;-67
2023/07/08 16:28:04;;;;;;;41.70;6.50;;;;;;;30.98;49.94;99185.03;10364602;28;20485;-68
2023/07/08 16:33:06;;;;;;;;;;;;;;;30.73;49.36;99139.38;10364937;28;20034;-68
2023/07/08 16:38:07;;;;;;;40.97;5.60;;;;;;;30.64;51.00;99183.28;10369360;28;19918;-67
2023/07/08 16:43:26;;;;;;;24.85;5.35;;;;;;;30.29;52.24;99166.19;10370793;28;20041;-68
2023/07/08 16:48:26;;;;;;;24.75;6.22;;;;;;;30.21;52.39;99178.75;10364091;28;20046;-68
2023/07/08 16:53:29;;;;;;;39.88;6.47;;;;;;;30.31;53.65;99215.97;10331801;28;20046;-68
2023/07/08 16:58:29;;;;;;;37.50;6.15;;;;;;;30.22;52.69;99210.53;10329321;28;20062;-68
2023/07/08 17:03:32;;;;;;;25.17;5.43;;;;;;;30.04;52.54;99198.75;10327417;28;20133;-69
2023/07/08 17:08:33;;;;;;;37.05;6.00;;;;;;;29.97;52.39;99187.50;10328683;28;20460;-67
2023/07/08 17:13:34;;;;;;;40.08;6.45;;;;;;;29.82;52.75;99180.59;10329762;28;20076;-66
2023/07/08 17:18:35;;;;;;;31.75;5.90;;;;;;;29.89;52.22;99204.75;10329778;28;20555;-67
2023/07/08 17:23:36;;;;;;;32.60;6.28;;;;;;;29.84;52.43;99216.66;10333447;28;20046;-65
2023/07/08 17:28:37;;;;;;;26.83;5.22;;;;;;;29.79;52.45;99214.09;10330769;28;20090;-67
2023/07/08 17:33:38;;;;;;;30.05;5.57;;;;;;;29.65;52.35;99217.00;10336301;28;20060;-67
2023/07/08 17:38:47;;;;;;;25.33;5.38;;;;;;;29.62;52.64;99223.13;10328752;28;20485;-67
2023/07/08 17:43:48;;;;;;;28.02;4.88;;;;;;;29.46;52.90;99209.06;10327745;28;20081;-67
2023/07/08 17:48:50;;;;;;;19.42;4.50;;;;;;;29.49;52.47;99224.84;10334657;28;20045;-66
2023/07/08 17:53:52;;;;;;;18.45;4.30;;;;;;;29.40;52.49;99226.75;10341497;28;20559;-65
2023/07/08 17:59:17;;;;;;;21.52;4.90;;;;;;;29.48;52.63;99223.25;10367174;28;20089;-67
2023/07/08 18:04:36;;;;;;;18.02;4.25;;;;;;;29.45;52.97;99228.56;10326647;28;20070;-67
2023/07/08 18:09:37;;;;;;;20.13;4.18;;;;;;;29.21;52.73;99202.44;10330524;28;20509;-67
2023/07/08 18:14:39;;;;;;;20.42;4.47;;;;;;;28.71;53.42;99139.13;10366430;28;20095;-65
2023/07/08 18:19:58;;;;;;;26.52;4.95;;;;;;;29.24;54.70;99209.22;10352323;28;20489;-68
2023/07/08 18:24:59;;;;;;;29.05;5.38;;;;;;;29.10;54.16;99206.63;10366490;28;20038;-67
2023/07/08 18:30:19;;;;;;;26.05;5.10;;;;;;;29.10;54.71;99206.63;10360427;28;20053;-68
2023/07/08 18:35:23;;;;;;;19.48;4.88;;;;;;;28.64;54.90;99151.31;10326911;28;20065;-67
2023/07/08 18:40:43;;;;;;;20.65;4.43;;;;;;;28.95;55.95;99207.84;10328349;28;20068;-67
2023/07/08 18:46:03;;;;;;;18.77;4.95;;;;;;;28.70;55.66;99198.44;10339931;28;20083;-68
2023/07/08 18:51:24;;;;;;;20.38;4.07;;;;;;;28.80;56.56;99222.75;10349786;28;20095;-67
2023/07/08 18:56:25;;;;;;;17.02;4.25;;;;;;;28.60;56.49;99215.94;10350221;28;20060;-68
2023/07/08 19:01:26;;;;;;;15.65;4.85;;;;;;;28.29;57.67;99179.59;10341405;28;20046;-68
2023/07/08 19:06:27;;;;;;;34.97;6.20;;;;;;;28.32;58.56;99198.09;10349584;28;20078;-67
2023/07/08 19:11:29;;;;;;;20.90;5.00;;;;;;;28.27;58.49;99206.41;10354335;28;20088;-67
2023/07/08 19:16:29;;;;;;;16.45;4.07;;;;;;;27.93;58.44;99150.50;10350309;28;20050;-68
2023/07/08 19:21:31;;;;;;;9.70;3.95;;;;;;;28.27;57.96;99220.06;10349572;28;20041;-67
2023/07/08 19:26:32;;;;;;;10.77;3.72;;;;;;;27.73;58.42;99144.41;10355350;28;20102;-67
2023/07/08 19:31:33;;;;;;;15.98;4.55;;;;;;;28.18;58.73;99223.56;10357381;28;20072;-67
2023/07/08 19:36:34;;;;;;;14.30;4.93;;;;;;;28.22;59.91;99227.28;10353807;28;20386;-67
2023/07/08 19:41:36;;;;;;;12.95;4.80;;;;;;;27.96;60.54;99213.44;10345562;28;20042;-67
2023/07/08 19:46:37;;;;;;;18.30;5.30;;;;;;;27.77;60.92;99188.25;10332133;28;20084;-67
2023/07/08 19:51:38;;;;;;;24.73;4.60;;;;;;;27.85;61.63;99220.28;10332251;28;20051;-67
2023/07/08 19:56:39;;;;;;;16.17;6.55;;;;;;;27.62;61.21;99207.72;10331525;28;20093;-67
2023/07/08 20:01:40;;;;;;;20.90;5.03;;;;;;;27.67;59.98;99234.88;10341785;28;20046;-67
2023/07/08 20:06:40;;;;;;;54.13;8.10;;;;;;;27.19;63.20;99263.47;10328363;28;20053;-68
2023/07/08 20:11:41;;;;;;;15.07;6.47;;;;;;;25.57;68.07;99232.47;10340040;28;20497;-65
2023/07/08 20:16:42;;;;;;;13.57;4.32;;;;;;;25.24;69.93;99300.31;10348719;28;20041;-66
2023/07/08 20:21:43;;;;;;;11.93;3.72;;;;;;;24.93;70.87;99307.97;10330837;28;20046;-65
2023/07/08 20:26:45;;;;;;;10.13;3.13;;;;;;;24.65;71.46;99291.44;10329943;28;20038;-65
2023/07/08 20:31:46;;;;;;;12.98;3.08;;;;;;;24.42;72.72;99284.84;10330564;28;20046;-65
2023/07/08 20:36:47;;;;;;;8.05;3.38;;;;;;;24.12;74.07;99270.41;10329665;28;20447;-65
2023/07/08 20:41:47;;;;;;;11.32;3.60;;;;;;;24.08;74.85;99290.25;10330128;28;20046;-65
2023/07/08 20:46:49;;;;;;;7.55;3.60;;;;;;;23.29;76.10;99186.34;10340198;28;20046;-65
2023/07/08 20:51:50;;;;;;;9.98;4.18;;;;;;;23.96;76.82;99293.34;10329474;28;20544;-65
2023/07/08 20:56:51;;;;;;;8.75;3.38;;;;;;;23.77;77.46;99273.38;10344636;28;20545;-67
2023/07/08 21:01:54;;;;;;;9.13;3.55;;;;;;;23.94;78.37;99300.13;10357804;28;20048;-65
2023/07/08 21:06:55;;;;;;;8.68;3.10;;;;;;;24.09;76.69;99289.16;10329392;28;20081;-65
2023/07/08 21:11:56;;;;;;;9.10;3.30;;;;;;;23.69;76.44;99188.84;10337767;28;20454;-66
2023/07/08 21:16:56;;;;;;;9.15;3.50;;;;;;;23.73;75.77;99193.69;10329171;28;20034;-66
2023/07/08 21:21:57;;;;;;;13.45;3.55;;;;;;;24.36;76.62;99275.91;10328758;28;20517;-66
2023/07/08 21:26:58;;;;;;;8.13;3.08;;;;;;;24.25;75.89;99257.28;10328894;28;20047;-65
2023/07/08 21:31:59;;;;;;;11.43;2.80;;;;;;;24.15;76.67;99250.03;10329079;28;20046;-65
2023/07/08 21:37:02;;;;;;;5.53;2.75;;;;;;;23.84;77.24;99244.88;10355377;28;20428;-65
2023/07/08 21:42:03;;;;;;;5.73;2.90;;;;;;;23.80;76.36;99261.97;10369139;28;20048;-66
2023/07/08 21:47:04;;;;;;;5.35;2.75;;;;;;;24.37;76.35;99353.53;10328572;28;20294;-65
2023/07/08 21:52:05;;;;;;;6.00;2.80;;;;;;;24.28;78.27;99300.13;10336970;28;20409;-67
2023/07/08 21:57:12;;;;;;;8.60;3.10;;;;;;;24.03;82.52;99285.69;10355043;28;20148;-66
2023/07/08 22:02:13;;;;;;;7.13;3.15;;;;;;;23.85;82.40;99267.38;10367457;28;20045;-66
2023/07/08 22:07:14;;;;;;;6.80;3.15;;;;;;;23.76;83.72;99266.34;10367650;28;20053;-66
2023/07/08 22:12:21;;;;;;;6.53;3.15;;;;;;;23.67;87.45;99260.66;10367679;28;20072;-66
2023/07/08 22:17:22;;;;;;;6.40;3.28;;;;;;;23.57;85.14;99252.59;10361456;28;20062;-66
2023/07/08 22:22:23;;;;;;;7.35;2.88;;;;;;;23.18;84.73;99228.94;10326914;28;20061;-67
2023/07/08 22:27:24;;;;;;;6.18;3.20;;;;;;;23.35;84.68;99261.91;10326318;28;20095;-67
2023/07/08 22:32:24;;;;;;;5.55;3.08;;;;;;;23.16;84.63;99241.97;10326401;28;20042;-67
2023/07/08 22:37:25;;;;;;;12.52;2.97;;;;;;;23.33;85.31;99264.09;10325777;28;20065;-66
2023/07/08 22:42:27;;;;;;;6.38;3.08;;;;;;;22.32;85.32;99109.06;10326438;28;20042;-66
2023/07/08 22:47:29;;;;;;;5.82;3.00;;;;;;;23.26;86.56;99257.38;10326487;28;20493;-67
2023/07/08 22:52:34;;;;;;;6.85;2.95;;;;;;;22.93;88.38;99217.09;10326543;28;20034;-66
2023/07/08 22:57:34;;;;;;;5.30;2.80;;;;;;;22.50;87.96;99129.28;10326108;28;20141;-66
2023/07/08 23:02:35;;;;;;;6.40;2.53;;;;;;;22.69;88.25;99154.66;10325299;28;20039;-66
2023/07/08 23:07:36;;;;;;;4.53;2.42;;;;;;;23.11;88.08;99198.66;10331698;28;20049;-66
2023/07/08 23:12:37;;;;;;;4.47;2.55;;;;;;;23.33;88.32;99214.50;10342589;28;20049;-68
2023/07/08 23:17:41;;;;;;;6.07;2.88;;;;;;;23.23;89.30;99201.84;10325658;28;20118;-66
2023/07/08 23:22:43;;;;;;;4.38;2.90;;;;;;;23.28;88.22;99219.97;10324791;28;20045;-66
2023/07/08 23:27:44;;;;;;;4.82;2.90;;;;;;;23.38;88.22;99220.72;10324991;28;20489;-66